Schedule Details


Flight Number: CTN412
Departure: Kastela (LDSP) at 14:45
Arrival: Frankfurt/main (EDDF) at 16:35
Route: ZDA DCT BUSET DCT VEKEN DCT ERKIR UQ863 TEKSI/N0450F300 UQ863 ETASA T163 PSA

Weather Information
LDSP 221530Z 11009KT CAVOK 22/13 Q1017 NOSIG
EDDF 221550Z 21006KT CAVOK 23/09 Q1009 NOSIG
Schedule Frequency

Route Map